Accueil
METAR-TAF:

METAR-TAF

Aéroports :

Aéroport international de Tachkent

Tachkent, Ouzbékistan

latitude: 41-16N, longitude: 069-16E, altitude: 489 m

Observation

Le bulletin a été fait il y a 54 minutes, à 18:30 UTC
Vent 4 kt de nord-est
Température 7°C
Humidité 70%
Pression 1027 hPa
Visibilité: 4000 m
fumée

METAR: UTTT 191830Z 05004KT 4000 FU NSC 07/02 Q1027 R08R/CLRD70 NOSIG

Heure: 00:24 (19:24 UTC)

Prévision

Le bulletin a été fait il y a 2 heures et 24 minutes, à 17:00 UTC
Prévision valable du 19 à 18 UTC au 20 à 18 UTC
Vent 12 kt de est/nord-est
Visibilité: 7000 m
Temporairement
du 19 à 18 UTC au 20 à 03 UTC
Visibilité: 3000 m
brume, fumée

TAF: UTTT 191700Z 1918/2018 07012KT 7000 NSC TEMPO 1918/2003 3000 BR FU

Observations et prévisions météorologiques de plus de 4000 aéroports (messages METAR et TAF).

Les stations disponibles sont représentées par des disques jaunes et rouges sur la carte.

Passer la souris dessus pour voir le nom de la station.

Cliquer dessus pour voir les observations et prévisions météorologiques.

Pour changer de carte: cliquez sur les boutons verts avec une croix noire pour zoomer, sur le bouton vert avec un tiret pour effectuer un zoom arrière, ou sur les flèches vertes pour les cartes adjacentes.


METAR-TAF: